createdAt,value
2019-04-06T00:01:29.462Z,9.80
2019-04-06T00:06:32.287Z,9.80
2019-04-06T00:11:44.096Z,9.80
2019-04-06T00:16:46.924Z,9.70
2019-04-06T00:21:49.740Z,9.70
2019-04-06T00:26:53.449Z,9.70
2019-04-06T00:32:03.992Z,9.70
2019-04-06T00:37:06.930Z,9.60
2019-04-06T00:42:09.700Z,9.60
2019-04-06T00:47:12.548Z,9.60
2019-04-06T00:52:15.309Z,9.60
2019-04-06T00:57:18.044Z,9.50
2019-04-06T01:02:20.962Z,9.50
2019-04-06T01:07:23.943Z,9.50
2019-04-06T01:12:26.691Z,9.40
2019-04-06T01:17:29.411Z,9.40
2019-04-06T01:22:32.238Z,9.40
2019-04-06T01:27:35.173Z,9.30
2019-04-06T01:32:37.869Z,9.20
2019-04-06T01:37:40.633Z,9.10
2019-04-06T01:42:43.405Z,8.90
2019-04-06T01:47:46.234Z,8.80
2019-04-06T01:52:51.479Z,8.70
2019-04-06T01:57:54.221Z,8.60
2019-04-06T02:02:57.103Z,8.40
2019-04-06T02:08:00.364Z,8.20
2019-04-06T02:13:03.252Z,8.00
2019-04-06T02:18:06.273Z,7.80
2019-04-06T02:23:14.287Z,7.70
2019-04-06T02:28:17.215Z,7.60
2019-04-06T02:39:12.136Z,7.30
2019-04-06T02:44:14.907Z,7.20
2019-04-06T02:49:19.874Z,7.10
2019-04-06T02:54:22.752Z,7.00
2019-04-06T02:59:25.498Z,6.80
2019-04-06T03:04:28.277Z,6.70
2019-04-06T03:09:31.035Z,6.60
2019-04-06T03:14:33.871Z,6.40
2019-04-06T03:19:40.664Z,6.30
2019-04-06T03:24:43.374Z,6.20
2019-04-06T03:29:57.596Z,6.10
2019-04-06T03:34:51.206Z,6.00
2019-04-06T03:39:54.209Z,5.80
2019-04-06T03:44:56.999Z,5.70
2019-04-06T03:49:59.792Z,5.70
2019-04-06T03:55:04.050Z,5.60
2019-04-06T04:00:07.574Z,5.50
2019-04-06T04:05:10.502Z,5.50
2019-04-06T04:10:31.297Z,5.40
2019-04-06T04:15:34.126Z,5.30
2019-04-06T04:20:37.073Z,5.30
2019-04-06T04:25:40.242Z,5.10
2019-04-06T04:30:43.065Z,5.20
2019-04-06T04:35:45.993Z,5.10
2019-04-06T04:40:48.943Z,5.10
2019-04-06T04:45:51.720Z,5.10
2019-04-06T04:50:54.522Z,5.10
2019-04-06T04:55:57.255Z,5.00
2019-04-06T05:01:00.092Z,5.00
2019-04-06T05:06:02.922Z,5.00
2019-04-06T05:11:05.728Z,5.00
2019-04-06T05:16:10.049Z,5.00
2019-04-06T05:21:13.148Z,5.00
2019-04-06T05:26:37.531Z,5.10
2019-04-06T05:31:35.716Z,5.20
2019-04-06T05:36:38.625Z,5.30
2019-04-06T05:41:41.523Z,5.30
2019-04-06T05:46:44.316Z,5.40
2019-04-06T05:51:47.275Z,5.40
2019-04-06T05:56:50.021Z,5.40
2019-04-06T06:01:52.785Z,5.50
2019-04-06T06:06:55.507Z,5.40
2019-04-06T06:11:58.429Z,5.50
2019-04-06T06:17:01.163Z,5.60
2019-04-06T06:22:04.091Z,5.80
2019-04-06T06:27:06.858Z,6.00
2019-04-06T06:32:10.730Z,6.10
2019-04-06T06:37:13.516Z,6.20
2019-04-06T06:42:16.389Z,6.30
2019-04-06T06:47:19.139Z,6.50
2019-04-06T06:52:22.007Z,6.50
2019-04-06T06:57:25.101Z,6.80
2019-04-06T07:02:31.837Z,7.20
2019-04-06T07:07:34.790Z,7.60
2019-04-06T07:12:37.569Z,7.80
2019-04-06T07:17:40.388Z,8.00
2019-04-06T07:22:43.338Z,8.20
2019-04-06T07:27:46.090Z,8.40
2019-04-06T07:32:49.177Z,8.70
2019-04-06T07:37:52.043Z,8.90
2019-04-06T07:42:55.588Z,9.10
2019-04-06T07:47:58.305Z,9.30
2019-04-06T07:53:01.023Z,9.70
2019-04-06T07:58:03.747Z,9.90
2019-04-06T08:03:06.544Z,10.40
2019-04-06T08:08:09.338Z,10.40
2019-04-06T08:13:12.237Z,10.40
2019-04-06T08:18:15.030Z,10.40
2019-04-06T08:23:17.905Z,10.70
2019-04-06T08:28:20.659Z,10.80
2019-04-06T08:33:23.428Z,10.90
2019-04-06T08:38:26.285Z,11.40
2019-04-06T08:43:29.066Z,11.60
2019-04-06T08:48:31.903Z,11.50
2019-04-06T08:53:34.709Z,11.30
2019-04-06T08:58:37.480Z,11.20
2019-04-06T09:03:40.648Z,11.10
2019-04-06T09:08:43.421Z,10.80
2019-04-06T09:13:46.185Z,10.70
2019-04-06T09:18:49.477Z,10.60
2019-04-06T09:23:52.703Z,10.50
2019-04-06T09:28:55.430Z,10.50
2019-04-06T09:33:58.193Z,10.60
2019-04-06T09:39:01.020Z,10.60
2019-04-06T09:44:05.724Z,10.70
2019-04-06T09:49:46.149Z,10.80
2019-04-06T09:55:07.271Z,11.00
2019-04-06T10:00:29.912Z,11.40
2019-04-06T10:05:50.786Z,11.80
2019-04-06T10:11:11.808Z,12.00
2019-04-06T10:16:36.978Z,12.50
2019-04-06T10:21:59.261Z,12.70
2019-04-06T10:27:21.749Z,12.80
2019-04-06T10:32:40.284Z,13.00
2019-04-06T10:37:56.342Z,13.50
2019-04-06T10:43:07.068Z,13.80
2019-04-06T10:48:24.615Z,13.70
2019-04-06T10:53:54.293Z,13.90
2019-04-06T10:59:22.317Z,14.10
2019-04-06T11:04:44.676Z,14.50
2019-04-06T11:10:25.040Z,14.60
2019-04-06T11:15:49.176Z,14.50
2019-04-06T11:21:17.456Z,14.90
2019-04-06T11:26:45.990Z,15.20
2019-04-06T11:31:58.511Z,15.80
2019-04-06T11:37:14.093Z,16.30
2019-04-06T11:42:35.276Z,16.80
2019-04-06T11:47:57.608Z,17.50
2019-04-06T11:53:23.178Z,17.80
2019-04-06T11:58:46.394Z,18.00
2019-04-06T12:03:58.566Z,18.20
2019-04-06T12:09:20.857Z,19.80
2019-04-06T12:14:36.794Z,21.50
2019-04-06T12:19:47.884Z,21.80
2019-04-06T12:25:13.337Z,22.40
2019-04-06T12:30:47.584Z,22.40
2019-04-06T12:36:10.637Z,21.10
2019-04-06T12:41:22.678Z,20.00
2019-04-06T12:46:54.056Z,20.10
2019-04-06T12:52:18.647Z,20.20
2019-04-06T12:57:49.939Z,20.20
2019-04-06T13:03:20.688Z,20.50
2019-04-06T13:08:28.745Z,20.60
2019-04-06T13:13:49.768Z,20.20
2019-04-06T13:19:08.598Z,20.00
2019-04-06T13:24:31.138Z,19.60
2019-04-06T13:30:02.210Z,19.90
2019-04-06T13:35:23.445Z,20.40
2019-04-06T13:40:41.807Z,21.00
2019-04-06T13:46:11.225Z,22.70
2019-04-06T13:51:36.234Z,25.20
2019-04-06T13:56:50.749Z,25.20
2019-04-06T14:02:04.103Z,23.90
2019-04-06T14:07:25.820Z,23.30
2019-04-06T14:12:47.234Z,24.40
2019-04-06T14:18:09.327Z,24.80
2019-04-06T14:23:34.976Z,24.10
2019-04-06T14:28:48.385Z,23.50
2019-04-06T14:34:07.122Z,22.90
2019-04-06T14:39:28.214Z,24.40
2019-04-06T14:44:46.369Z,26.10
2019-04-06T14:50:23.696Z,27.00
2019-04-06T14:55:59.493Z,27.70
2019-04-06T15:01:38.347Z,26.50
2019-04-06T15:07:12.352Z,24.30
2019-04-06T15:12:32.320Z,22.50
2019-04-06T15:17:54.891Z,20.50
2019-04-06T15:23:36.828Z,18.90
2019-04-06T15:29:11.745Z,17.60
2019-04-06T15:34:29.262Z,16.50
2019-04-06T15:39:52.467Z,16.10
2019-04-06T15:45:12.345Z,15.80
2019-04-06T15:50:33.607Z,15.70
2019-04-06T15:55:54.786Z,15.50
2019-04-06T16:01:29.239Z,15.40
2019-04-06T16:06:47.817Z,15.30
2019-04-06T16:11:58.635Z,15.40
2019-04-06T16:22:53.476Z,15.50
2019-04-06T16:28:19.534Z,15.90
2019-04-06T16:33:45.133Z,15.50
2019-04-06T16:39:13.106Z,15.40
2019-04-06T16:44:44.584Z,15.60
2019-04-06T16:50:00.586Z,15.40
2019-04-06T16:55:26.451Z,15.20
2019-04-06T17:00:57.625Z,15.70
2019-04-06T17:06:08.303Z,16.30
2019-04-06T17:11:36.973Z,16.40
2019-04-06T17:17:06.255Z,16.20
2019-04-06T17:22:31.348Z,15.90
2019-04-06T17:27:57.124Z,15.70
2019-04-06T17:33:17.639Z,15.40
2019-04-06T17:38:26.504Z,15.20
2019-04-06T17:43:47.766Z,15.00
2019-04-06T17:49:13.784Z,14.70
2019-04-06T17:54:36.739Z,14.60
2019-04-06T17:59:59.903Z,14.40
2019-04-06T18:05:29.160Z,14.30
2019-04-06T18:10:42.702Z,14.30
2019-04-06T18:15:46.124Z,14.30
2019-04-06T18:20:50.295Z,14.20
2019-04-06T18:25:53.263Z,14.20
2019-04-06T18:31:18.402Z,14.20
2019-04-06T18:36:24.755Z,14.20
2019-04-06T18:41:28.116Z,14.10
2019-04-06T18:46:31.028Z,14.10
2019-04-06T18:51:34.019Z,14.10
2019-04-06T18:56:36.879Z,14.10
2019-04-06T19:01:39.691Z,14.10
2019-04-06T19:06:43.121Z,14.00
2019-04-06T19:11:54.475Z,14.00
2019-04-06T19:16:50.729Z,14.00
2019-04-06T19:21:53.594Z,14.00
2019-04-06T19:26:56.544Z,13.90
2019-04-06T19:31:59.306Z,13.90
2019-04-06T19:37:02.664Z,13.80
2019-04-06T19:42:06.424Z,13.80
2019-04-06T19:47:09.232Z,13.80
2019-04-06T19:52:12.385Z,13.80
2019-04-06T19:57:15.920Z,13.80
2019-04-06T20:02:18.653Z,13.80
2019-04-06T20:07:21.761Z,13.80
2019-04-06T20:12:24.861Z,13.80
2019-04-06T20:17:27.715Z,13.80
2019-04-06T20:22:30.690Z,13.80
2019-04-06T20:27:33.509Z,13.80
2019-04-06T20:32:36.351Z,13.80
2019-04-06T20:37:42.701Z,13.80
2019-04-06T20:42:46.165Z,13.80
2019-04-06T20:47:48.997Z,13.70
2019-04-06T20:52:52.565Z,13.60
2019-04-06T20:57:55.459Z,13.60
2019-04-06T21:03:04.939Z,13.50
2019-04-06T21:08:29.711Z,13.50
2019-04-06T21:19:35.078Z,13.40
2019-04-06T21:24:37.894Z,13.40
2019-04-06T21:29:40.837Z,13.40
2019-04-06T21:34:44.839Z,13.40
2019-04-06T21:39:47.644Z,13.40
2019-04-06T21:44:50.557Z,13.30
2019-04-06T21:49:53.329Z,13.30
2019-04-06T21:54:56.071Z,13.20
2019-04-06T21:59:59.066Z,13.10
2019-04-06T22:05:02.994Z,13.00
2019-04-06T22:10:06.310Z,12.90
2019-04-06T22:15:10.478Z,12.80
2019-04-06T22:20:13.991Z,12.60
2019-04-06T22:25:16.775Z,12.40
2019-04-06T22:30:19.869Z,12.20
2019-04-06T22:35:23.151Z,12.00
2019-04-06T22:40:25.913Z,11.80
2019-04-06T22:45:29.859Z,11.60
2019-04-06T22:50:32.721Z,11.50
2019-04-06T22:55:35.575Z,11.70
2019-04-06T23:00:42.415Z,11.80
2019-04-06T23:05:48.169Z,11.90
2019-04-06T23:10:50.904Z,12.00
2019-04-06T23:15:54.216Z,11.90
2019-04-06T23:20:58.745Z,11.90
2019-04-06T23:26:03.089Z,11.80
2019-04-06T23:31:06.203Z,11.80
2019-04-06T23:36:09.167Z,11.70
2019-04-06T23:41:11.911Z,11.60
2019-04-06T23:46:15.777Z,11.60
2019-04-06T23:51:18.820Z,11.60
2019-04-06T23:56:21.628Z,11.50
